sensor_id;sensor_type;location;lat;lon;timestamp;pressure;altitude;pressure_sealevel;temperature;humidity
3150;BME280;32503;47.748;8.960;2023-08-12T00:00:24;97219.22;;;22.78;62.38
3150;BME280;32503;47.748;8.960;2023-08-12T00:02:51;97210.75;;;22.68;62.65
3150;BME280;32503;47.748;8.960;2023-08-12T00:05:18;97206.09;;;22.65;62.37
3150;BME280;32503;47.748;8.960;2023-08-12T00:07:46;97204.56;;;22.64;62.71
3150;BME280;32503;47.748;8.960;2023-08-12T00:10:13;97212.09;;;22.60;62.83
3150;BME280;32503;47.748;8.960;2023-08-12T00:12:40;97205.41;;;22.61;62.46
3150;BME280;32503;47.748;8.960;2023-08-12T00:15:10;97204.56;;;22.64;62.37
3150;BME280;32503;47.748;8.960;2023-08-12T00:17:37;97197.47;;;22.63;62.44
3150;BME280;32503;47.748;8.960;2023-08-12T00:20:08;97201.50;;;22.59;62.57
3150;BME280;32503;47.748;8.960;2023-08-12T00:22:36;97205.72;;;22.47;63.23
3150;BME280;32503;47.748;8.960;2023-08-12T00:25:05;97192.50;;;22.38;63.23
3150;BME280;32503;47.748;8.960;2023-08-12T00:27:32;97197.38;;;22.30;63.58
3150;BME280;32503;47.748;8.960;2023-08-12T00:30:00;97199.34;;;22.30;63.42
3150;BME280;32503;47.748;8.960;2023-08-12T00:32:28;97193.19;;;22.22;63.65
3150;BME280;32503;47.748;8.960;2023-08-12T00:34:55;97196.56;;;22.10;64.12
3150;BME280;32503;47.748;8.960;2023-08-12T00:37:23;97191.56;;;22.05;64.27
3150;BME280;32503;47.748;8.960;2023-08-12T00:39:50;97188.59;;;21.95;64.83
3150;BME280;32503;47.748;8.960;2023-08-12T00:42:17;97188.59;;;21.95;64.88
3150;BME280;32503;47.748;8.960;2023-08-12T00:44:44;97188.00;;;21.84;65.19
3150;BME280;32503;47.748;8.960;2023-08-12T00:47:11;97188.81;;;21.81;65.29
3150;BME280;32503;47.748;8.960;2023-08-12T00:49:40;97182.06;;;21.86;65.14
3150;BME280;32503;47.748;8.960;2023-08-12T00:52:09;97182.78;;;21.90;64.81
3150;BME280;32503;47.748;8.960;2023-08-12T00:54:36;97179.97;;;21.93;64.84
3150;BME280;32503;47.748;8.960;2023-08-12T00:57:04;97184.00;;;21.89;64.63
3150;BME280;32503;47.748;8.960;2023-08-12T00:59:35;97186.31;;;21.90;64.65
3150;BME280;32503;47.748;8.960;2023-08-12T01:02:03;97184.06;;;21.85;64.73
3150;BME280;32503;47.748;8.960;2023-08-12T01:04:31;97174.03;;;21.75;64.69
3150;BME280;32503;47.748;8.960;2023-08-12T01:06:59;97190.41;;;21.82;64.81
3150;BME280;32503;47.748;8.960;2023-08-12T01:09:26;97180.88;;;21.87;64.48
3150;BME280;32503;47.748;8.960;2023-08-12T01:12:01;97174.22;;;21.84;63.94
3150;BME280;32503;47.748;8.960;2023-08-12T01:14:37;97182.34;;;21.91;63.87
3150;BME280;32503;47.748;8.960;2023-08-12T01:17:08;97178.13;;;21.87;63.79
3150;BME280;32503;47.748;8.960;2023-08-12T01:19:39;97164.50;;;21.80;63.71
3150;BME280;32503;47.748;8.960;2023-08-12T01:22:10;97181.66;;;21.87;63.72
3150;BME280;32503;47.748;8.960;2023-08-12T01:24:41;97174.09;;;21.91;63.32
3150;BME280;32503;47.748;8.960;2023-08-12T01:27:11;97173.69;;;21.93;63.31
3150;BME280;32503;47.748;8.960;2023-08-12T01:29:41;97180.47;;;21.88;63.44
3150;BME280;32503;47.748;8.960;2023-08-12T01:32:17;97179.31;;;21.86;63.55
3150;BME280;32503;47.748;8.960;2023-08-12T01:34:54;97181.31;;;21.85;63.62
3150;BME280;32503;47.748;8.960;2023-08-12T01:37:26;97166.94;;;21.74;64.04
3150;BME280;32503;47.748;8.960;2023-08-12T01:39:59;97179.47;;;21.78;63.94
3150;BME280;32503;47.748;8.960;2023-08-12T01:42:29;97175.13;;;21.77;63.95
3150;BME280;32503;47.748;8.960;2023-08-12T01:44:56;97171.03;;;21.66;64.73
3150;BME280;32503;47.748;8.960;2023-08-12T01:47:23;97171.19;;;21.58;64.80
3150;BME280;32503;47.748;8.960;2023-08-12T01:49:50;97168.03;;;21.56;64.94
3150;BME280;32503;47.748;8.960;2023-08-12T01:52:17;97169.72;;;21.50;65.27
3150;BME280;32503;47.748;8.960;2023-08-12T01:54:44;97157.47;;;21.55;64.81
3150;BME280;32503;47.748;8.960;2023-08-12T01:57:13;97157.41;;;21.58;64.56
3150;BME280;32503;47.748;8.960;2023-08-12T01:59:40;97159.03;;;21.56;64.80
3150;BME280;32503;47.748;8.960;2023-08-12T02:02:09;97160.38;;;21.44;65.33
3150;BME280;32503;47.748;8.960;2023-08-12T02:04:39;97163.75;;;21.32;65.51
3150;BME280;32503;47.748;8.960;2023-08-12T02:07:08;97157.81;;;21.33;65.81
3150;BME280;32503;47.748;8.960;2023-08-12T02:09:35;97163.69;;;21.35;66.07
3150;BME280;32503;47.748;8.960;2023-08-12T02:12:02;97166.78;;;21.37;66.07
3150;BME280;32503;47.748;8.960;2023-08-12T02:14:31;97163.88;;;21.48;65.77
3150;BME280;32503;47.748;8.960;2023-08-12T02:16:58;97169.97;;;21.59;65.03
3150;BME280;32503;47.748;8.960;2023-08-12T02:19:25;97160.03;;;21.66;64.71
3150;BME280;32503;47.748;8.960;2023-08-12T02:21:52;97159.91;;;21.73;64.32
3150;BME280;32503;47.748;8.960;2023-08-12T02:24:19;97168.59;;;21.71;64.34
3150;BME280;32503;47.748;8.960;2023-08-12T02:26:46;97159.97;;;21.69;64.78
3150;BME280;32503;47.748;8.960;2023-08-12T02:29:13;97161.56;;;21.67;65.09
3150;BME280;32503;47.748;8.960;2023-08-12T02:31:42;97154.47;;;21.69;64.56
3150;BME280;32503;47.748;8.960;2023-08-12T02:34:09;97159.50;;;21.74;64.37
3150;BME280;32503;47.748;8.960;2023-08-12T02:36:36;97157.09;;;21.76;64.37
3150;BME280;32503;47.748;8.960;2023-08-12T02:39:04;97151.16;;;21.78;64.29
3150;BME280;32503;47.748;8.960;2023-08-12T02:41:31;97154.41;;;21.73;64.62
3150;BME280;32503;47.748;8.960;2023-08-12T02:43:58;97146.91;;;21.73;64.52
3150;BME280;32503;47.748;8.960;2023-08-12T02:46:25;97147.41;;;21.68;64.98
3150;BME280;32503;47.748;8.960;2023-08-12T02:48:54;97143.59;;;21.62;65.17
3150;BME280;32503;47.748;8.960;2023-08-12T02:51:21;97148.78;;;21.56;65.49
3150;BME280;32503;47.748;8.960;2023-08-12T02:53:48;97146.41;;;21.58;65.24
3150;BME280;32503;47.748;8.960;2023-08-12T02:56:15;97148.78;;;21.56;65.09
3150;BME280;32503;47.748;8.960;2023-08-12T02:58:42;97143.78;;;21.51;65.48
3150;BME280;32503;47.748;8.960;2023-08-12T03:01:09;97143.78;;;21.51;65.65
3150;BME280;32503;47.748;8.960;2023-08-12T03:03:36;97150.00;;;21.55;65.39
3150;BME280;32503;47.748;8.960;2023-08-12T03:06:05;97142.03;;;21.61;64.88
3150;BME280;32503;47.748;8.960;2023-08-12T03:08:32;97146.69;;;21.64;64.76
3150;BME280;32503;47.748;8.960;2023-08-12T03:10:59;97138.81;;;21.66;64.64
3150;BME280;32503;47.748;8.960;2023-08-12T03:13:26;97134.13;;;21.63;64.71
3150;BME280;32503;47.748;8.960;2023-08-12T03:15:54;97138.09;;;21.62;64.73
3150;BME280;32503;47.748;8.960;2023-08-12T03:18:21;97137.44;;;21.54;64.96
3150;BME280;32503;47.748;8.960;2023-08-12T03:20:48;97132.28;;;21.56;64.83
3150;BME280;32503;47.748;8.960;2023-08-12T03:23:16;97139.75;;;21.56;64.89
3150;BME280;32503;47.748;8.960;2023-08-12T03:25:44;97124.97;;;21.50;64.93
3150;BME280;32503;47.748;8.960;2023-08-12T03:28:13;97136.31;;;21.52;65.10
3150;BME280;32503;47.748;8.960;2023-08-12T03:30:40;97138.38;;;21.44;65.92
3150;BME280;32503;47.748;8.960;2023-08-12T03:33:10;97131.31;;;21.43;65.64
3150;BME280;32503;47.748;8.960;2023-08-12T03:35:37;97136.97;;;21.36;66.08
3150;BME280;32503;47.748;8.960;2023-08-12T03:38:04;97139.47;;;21.27;66.56
3150;BME280;32503;47.748;8.960;2023-08-12T03:40:33;97129.31;;;21.24;66.39
3150;BME280;32503;47.748;8.960;2023-08-12T03:43:04;97134.69;;;21.31;66.17
3150;BME280;32503;47.748;8.960;2023-08-12T03:45:31;97140.53;;;21.33;66.27
3150;BME280;32503;47.748;8.960;2023-08-12T03:47:58;97151.88;;;21.35;66.11
3150;BME280;32503;47.748;8.960;2023-08-12T03:50:25;97146.50;;;21.28;66.73
3150;BME280;32503;47.748;8.960;2023-08-12T03:52:52;97144.91;;;21.30;66.97
3150;BME280;32503;47.748;8.960;2023-08-12T03:55:19;97142.44;;;21.36;66.15
3150;BME280;32503;47.748;8.960;2023-08-12T03:57:48;97143.88;;;21.44;65.87
3150;BME280;32503;47.748;8.960;2023-08-12T04:00:15;97151.72;;;21.46;65.78
3150;BME280;32503;47.748;8.960;2023-08-12T04:02:42;97140.31;;;21.47;65.66
3150;BME280;32503;47.748;8.960;2023-08-12T04:05:09;97143.78;;;21.51;65.35
3150;BME280;32503;47.748;8.960;2023-08-12T04:07:37;97143.06;;;21.47;65.60
3150;BME280;32503;47.748;8.960;2023-08-12T04:10:05;97144.63;;;21.48;65.61
3150;BME280;32503;47.748;8.960;2023-08-12T04:12:32;97142.66;;;21.49;65.56
3150;BME280;32503;47.748;8.960;2023-08-12T04:15:01;97139.91;;;21.49;65.86
3150;BME280;32503;47.748;8.960;2023-08-12T04:17:31;97144.72;;;21.41;66.22
3150;BME280;32503;47.748;8.960;2023-08-12T04:19:58;97141.63;;;21.39;66.61
3150;BME280;32503;47.748;8.960;2023-08-12T04:22:26;97143.63;;;21.35;66.95
3150;BME280;32503;47.748;8.960;2023-08-12T04:24:54;97134.09;;;21.19;66.82
3150;BME280;32503;47.748;8.960;2023-08-12T04:27:21;97145.81;;;21.24;67.09
3150;BME280;32503;47.748;8.960;2023-08-12T04:29:48;97145.03;;;21.23;67.10
3150;BME280;32503;47.748;8.960;2023-08-12T04:32:16;97146.97;;;21.23;66.89
3150;BME280;32503;47.748;8.960;2023-08-12T04:34:44;97156.84;;;21.20;67.15
3150;BME280;32503;47.748;8.960;2023-08-12T04:37:11;97153.75;;;21.18;67.60
3150;BME280;32503;47.748;8.960;2023-08-12T04:39:38;97149.78;;;21.19;67.49
3150;BME280;32503;47.748;8.960;2023-08-12T04:42:06;97146.22;;;21.22;67.57
3150;BME280;32503;47.748;8.960;2023-08-12T04:44:33;97149.72;;;21.23;67.41
3150;BME280;32503;47.748;8.960;2023-08-12T04:47:00;97147.34;;;21.25;67.46
3150;BME280;32503;47.748;8.960;2023-08-12T04:49:28;97142.69;;;21.21;67.76
3150;BME280;32503;47.748;8.960;2023-08-12T04:51:55;97143.41;;;21.26;67.39
3150;BME280;32503;47.748;8.960;2023-08-12T04:54:23;97152.06;;;21.24;67.31
3150;BME280;32503;47.748;8.960;2023-08-12T04:56:50;97134.50;;;21.18;67.40
3150;BME280;32503;47.748;8.960;2023-08-12T04:59:17;97146.84;;;21.30;67.26
3150;BME280;32503;47.748;8.960;2023-08-12T05:01:44;97148.06;;;21.29;67.39
3150;BME280;32503;47.748;8.960;2023-08-12T05:04:11;97141.84;;;21.25;67.54
3150;BME280;32503;47.748;8.960;2023-08-12T05:06:39;97145.31;;;21.29;67.44
3150;BME280;32503;47.748;8.960;2023-08-12T05:09:07;97147.25;;;21.32;67.27
3150;BME280;32503;47.748;8.960;2023-08-12T05:11:34;97151.13;;;21.34;67.26
3150;BME280;32503;47.748;8.960;2023-08-12T05:14:01;97140.13;;;21.34;67.35
3150;BME280;32503;47.748;8.960;2023-08-12T05:16:28;97143.28;;;21.33;67.44
3150;BME280;32503;47.748;8.960;2023-08-12T05:18:55;97136.88;;;21.39;67.25
3150;BME280;32503;47.748;8.960;2023-08-12T05:21:22;97145.44;;;21.45;67.04
3150;BME280;32503;47.748;8.960;2023-08-12T05:23:52;97148.16;;;21.49;67.20
3150;BME280;32503;47.748;8.960;2023-08-12T05:26:19;97146.53;;;21.51;66.98
3150;BME280;32503;47.748;8.960;2023-08-12T05:28:46;97148.44;;;21.54;67.23
3150;BME280;32503;47.748;8.960;2023-08-12T05:31:14;97147.25;;;21.55;67.45
3150;BME280;32503;47.748;8.960;2023-08-12T05:33:41;97151.06;;;21.62;67.22
3150;BME280;32503;47.748;8.960;2023-08-12T05:36:08;97153.69;;;21.69;67.00
3150;BME280;32503;47.748;8.960;2023-08-12T05:38:35;97145.72;;;21.74;66.83
3150;BME280;32503;47.748;8.960;2023-08-12T05:41:04;97153.06;;;21.81;66.92
3150;BME280;32503;47.748;8.960;2023-08-12T05:43:33;97140.03;;;21.85;66.53
3150;BME280;32503;47.748;8.960;2023-08-12T05:46:00;97146.38;;;22.02;66.24
3150;BME280;32503;47.748;8.960;2023-08-12T05:48:28;97147.03;;;22.10;65.79
3150;BME280;32503;47.748;8.960;2023-08-12T05:50:55;97147.22;;;22.19;65.39
3150;BME280;32503;47.748;8.960;2023-08-12T05:53:23;97156.13;;;22.27;64.98
3150;BME280;32503;47.748;8.960;2023-08-12T05:55:50;97154.09;;;22.31;65.13
3150;BME280;32503;47.748;8.960;2023-08-12T05:58:18;97148.03;;;22.40;64.91
3150;BME280;32503;47.748;8.960;2023-08-12T06:00:46;97149.53;;;22.61;64.62
3150;BME280;32503;47.748;8.960;2023-08-12T06:03:13;97155.66;;;22.85;63.75
3150;BME280;32503;47.748;8.960;2023-08-12T06:05:41;97163.69;;;22.96;63.87
3150;BME280;32503;47.748;8.960;2023-08-12T06:08:09;97170.38;;;23.47;63.31
3150;BME280;32503;47.748;8.960;2023-08-12T06:10:36;97168.34;;;24.10;60.65
3150;BME280;32503;47.748;8.960;2023-08-12T06:13:04;97169.03;;;24.82;58.90
3150;BME280;32503;47.748;8.960;2023-08-12T06:15:32;97158.84;;;25.30;56.69
3150;BME280;32503;47.748;8.960;2023-08-12T06:18:00;97137.63;;;25.62;55.66
3150;BME280;32503;47.748;8.960;2023-08-12T06:20:27;97153.47;;;26.19;54.34
3150;BME280;32503;47.748;8.960;2023-08-12T06:22:55;97158.22;;;26.40;53.45
3150;BME280;32503;47.748;8.960;2023-08-12T06:25:22;97157.72;;;26.86;52.23
3150;BME280;32503;47.748;8.960;2023-08-12T06:27:50;97145.81;;;26.85;51.60
3150;BME280;32503;47.748;8.960;2023-08-12T06:30:17;97165.81;;;26.71;51.60
3150;BME280;32503;47.748;8.960;2023-08-12T06:32:45;97159.88;;;26.60;52.10
3150;BME280;32503;47.748;8.960;2023-08-12T06:35:12;97159.97;;;26.78;52.48
3150;BME280;32503;47.748;8.960;2023-08-12T06:37:39;97159.81;;;27.22;51.26
3150;BME280;32503;47.748;8.960;2023-08-12T06:40:08;97155.09;;;27.41;50.08
3150;BME280;32503;47.748;8.960;2023-08-12T06:42:35;97159.00;;;27.81;48.91
3150;BME280;32503;47.748;8.960;2023-08-12T06:45:03;97146.03;;;28.24;48.31
3150;BME280;32503;47.748;8.960;2023-08-12T06:47:30;97140.09;;;28.50;47.02
3150;BME280;32503;47.748;8.960;2023-08-12T06:49:59;97147.81;;;28.55;47.07
3150;BME280;32503;47.748;8.960;2023-08-12T06:52:26;97174.88;;;28.54;47.60
3150;BME280;32503;47.748;8.960;2023-08-12T06:54:53;97171.28;;;28.45;47.47
3150;BME280;32503;47.748;8.960;2023-08-12T06:57:20;97174.63;;;28.77;47.34
3150;BME280;32503;47.748;8.960;2023-08-12T06:59:47;97172.56;;;29.29;46.96
3150;BME280;32503;47.748;8.960;2023-08-12T07:02:14;97173.22;;;29.72;45.84
3150;BME280;32503;47.748;8.960;2023-08-12T07:04:41;97162.16;;;29.87;45.18
3150;BME280;32503;47.748;8.960;2023-08-12T07:07:10;97154.69;;;30.08;44.19
3150;BME280;32503;47.748;8.960;2023-08-12T07:09:37;97152.19;;;30.10;43.11
3150;BME280;32503;47.748;8.960;2023-08-12T07:12:05;97164.09;;;30.11;43.52
3150;BME280;32503;47.748;8.960;2023-08-12T07:14:32;97156.53;;;30.26;43.79
3150;BME280;32503;47.748;8.960;2023-08-12T07:16:59;97172.03;;;30.72;43.05
3150;BME280;32503;47.748;8.960;2023-08-12T07:19:26;97163.91;;;31.04;41.67
3150;BME280;32503;47.748;8.960;2023-08-12T07:21:53;97154.59;;;31.27;41.33
3150;BME280;32503;47.748;8.960;2023-08-12T07:24:22;97154.00;;;31.38;40.87
3150;BME280;32503;47.748;8.960;2023-08-12T07:26:49;97146.09;;;31.36;40.13
3150;BME280;32503;47.748;8.960;2023-08-12T07:29:16;97152.66;;;31.33;40.50
3150;BME280;32503;47.748;8.960;2023-08-12T07:31:43;97150.31;;;31.67;40.51
3150;BME280;32503;47.748;8.960;2023-08-12T07:34:10;97151.97;;;32.00;39.57
3150;BME280;32503;47.748;8.960;2023-08-12T07:36:39;97144.63;;;32.29;38.34
3150;BME280;32503;47.748;8.960;2023-08-12T07:39:06;97153.34;;;32.63;38.33
3150;BME280;32503;47.748;8.960;2023-08-12T07:41:34;97152.84;;;32.64;37.80
3150;BME280;32503;47.748;8.960;2023-08-12T07:44:01;97154.25;;;32.80;37.78
3150;BME280;32503;47.748;8.960;2023-08-12T07:46:29;97155.19;;;32.45;37.99
3150;BME280;32503;47.748;8.960;2023-08-12T07:48:56;97156.75;;;31.73;38.84
3150;BME280;32503;47.748;8.960;2023-08-12T07:51:23;97147.72;;;31.08;39.57
3150;BME280;32503;47.748;8.960;2023-08-12T07:53:50;97156.94;;;30.63;41.10
3150;BME280;32503;47.748;8.960;2023-08-12T07:56:18;97161.53;;;30.81;41.57
3150;BME280;32503;47.748;8.960;2023-08-12T07:58:46;97168.78;;;31.44;40.72
3150;BME280;32503;47.748;8.960;2023-08-12T08:01:13;97159.84;;;31.19;40.15
3150;BME280;32503;47.748;8.960;2023-08-12T08:03:40;97171.59;;;31.09;40.86
3150;BME280;32503;47.748;8.960;2023-08-12T08:06:07;97172.28;;;31.18;40.31
3150;BME280;32503;47.748;8.960;2023-08-12T08:08:34;97173.56;;;31.03;41.15
3150;BME280;32503;47.748;8.960;2023-08-12T08:11:02;97171.47;;;30.53;41.64
3150;BME280;32503;47.748;8.960;2023-08-12T08:13:29;97171.81;;;29.53;43.54
3150;BME280;32503;47.748;8.960;2023-08-12T08:15:57;97161.13;;;28.93;44.95
3150;BME280;32503;47.748;8.960;2023-08-12T08:18:24;97142.81;;;28.78;46.20
3150;BME280;32503;47.748;8.960;2023-08-12T08:20:51;97155.00;;;29.13;45.45
3150;BME280;32503;47.748;8.960;2023-08-12T08:23:19;97177.06;;;29.75;45.26
3150;BME280;32503;47.748;8.960;2023-08-12T08:25:46;97158.16;;;30.33;43.79
3150;BME280;32503;47.748;8.960;2023-08-12T08:28:13;97167.25;;;30.57;43.32
3150;BME280;32503;47.748;8.960;2023-08-12T08:30:40;97165.69;;;30.71;43.57
3150;BME280;32503;47.748;8.960;2023-08-12T08:33:08;97161.13;;;31.04;42.84
3150;BME280;32503;47.748;8.960;2023-08-12T08:35:35;97166.53;;;31.63;42.52
3150;BME280;32503;47.748;8.960;2023-08-12T08:38:03;97163.75;;;31.84;40.72
3150;BME280;32503;47.748;8.960;2023-08-12T08:40:30;97158.53;;;31.97;40.52
3150;BME280;32503;47.748;8.960;2023-08-12T08:43:01;97166.91;;;31.97;41.24
3150;BME280;32503;47.748;8.960;2023-08-12T08:45:30;97170.69;;;31.94;40.88
3150;BME280;32503;47.748;8.960;2023-08-12T08:48:00;97172.78;;;31.99;41.08
3150;BME280;32503;47.748;8.960;2023-08-12T08:50:30;97181.66;;;32.18;41.01
3150;BME280;32503;47.748;8.960;2023-08-12T08:52:57;97181.31;;;32.37;40.47
3150;BME280;32503;47.748;8.960;2023-08-12T08:55:24;97194.00;;;32.58;40.19
3150;BME280;32503;47.748;8.960;2023-08-12T08:57:52;97189.09;;;33.11;39.56
3150;BME280;32503;47.748;8.960;2023-08-12T09:00:20;97183.13;;;33.35;38.75
3150;BME280;32503;47.748;8.960;2023-08-12T09:02:48;97188.75;;;33.78;38.65
3150;BME280;32503;47.748;8.960;2023-08-12T09:05:16;97183.97;;;34.02;37.54
3150;BME280;32503;47.748;8.960;2023-08-12T09:07:45;97187.28;;;33.51;37.25
3150;BME280;32503;47.748;8.960;2023-08-12T09:10:12;97192.66;;;33.12;38.36
3150;BME280;32503;47.748;8.960;2023-08-12T09:12:40;97195.78;;;32.87;39.06
3150;BME280;32503;47.748;8.960;2023-08-12T09:15:08;97190.28;;;32.67;40.03
3150;BME280;32503;47.748;8.960;2023-08-12T09:17:35;97187.03;;;32.48;40.76
3150;BME280;32503;47.748;8.960;2023-08-12T09:20:03;97196.34;;;32.13;40.83
3150;BME280;32503;47.748;8.960;2023-08-12T09:22:33;97207.47;;;32.07;41.61
3150;BME280;32503;47.748;8.960;2023-08-12T09:25:02;97200.13;;;32.10;42.69
3150;BME280;32503;47.748;8.960;2023-08-12T09:27:31;97183.97;;;31.99;42.18
3150;BME280;32503;47.748;8.960;2023-08-12T09:29:58;97196.28;;;32.07;42.07
3150;BME280;32503;47.748;8.960;2023-08-12T09:32:29;97177.41;;;32.02;43.25
3150;BME280;32503;47.748;8.960;2023-08-12T09:34:56;97185.66;;;32.38;42.64
3150;BME280;32503;47.748;8.960;2023-08-12T09:37:24;97196.19;;;32.75;41.76
3150;BME280;32503;47.748;8.960;2023-08-12T09:39:52;97176.81;;;33.03;41.20
3150;BME280;32503;47.748;8.960;2023-08-12T09:42:20;97161.94;;;33.23;40.67
3150;BME280;32503;47.748;8.960;2023-08-12T09:44:47;97154.94;;;33.07;39.91
3150;BME280;32503;47.748;8.960;2023-08-12T09:47:15;97159.69;;;32.31;40.81
3150;BME280;32503;47.748;8.960;2023-08-12T09:49:42;97169.84;;;32.08;40.41
3150;BME280;32503;47.748;8.960;2023-08-12T09:52:09;97167.75;;;32.03;40.21
3150;BME280;32503;47.748;8.960;2023-08-12T09:54:36;97172.16;;;32.10;41.24
3150;BME280;32503;47.748;8.960;2023-08-12T09:57:05;97166.00;;;32.26;41.17
3150;BME280;32503;47.748;8.960;2023-08-12T09:59:37;97170.53;;;32.24;41.85
3150;BME280;32503;47.748;8.960;2023-08-12T10:02:06;97165.38;;;32.17;42.41
3150;BME280;32503;47.748;8.960;2023-08-12T10:04:38;97173.72;;;32.11;44.30
3150;BME280;32503;47.748;8.960;2023-08-12T10:07:07;97165.53;;;31.87;44.41
3150;BME280;32503;47.748;8.960;2023-08-12T10:09:35;97162.41;;;31.59;45.51
3150;BME280;32503;47.748;8.960;2023-08-12T10:12:04;97177.09;;;31.38;46.32
3150;BME280;32503;47.748;8.960;2023-08-12T10:14:31;97184.41;;;31.51;45.98
3150;BME280;32503;47.748;8.960;2023-08-12T10:17:00;97190.28;;;31.53;44.88
3150;BME280;32503;47.748;8.960;2023-08-12T10:19:28;97199.81;;;31.46;44.76
3150;BME280;32503;47.748;8.960;2023-08-12T10:21:57;97186.59;;;31.26;45.40
3150;BME280;32503;47.748;8.960;2023-08-12T10:24:26;97186.72;;;31.17;45.81
3150;BME280;32503;47.748;8.960;2023-08-12T10:26:54;97198.59;;;30.97;45.83
3150;BME280;32503;47.748;8.960;2023-08-12T10:29:23;97210.53;;;30.68;46.44
3150;BME280;32503;47.748;8.960;2023-08-12T10:31:51;97211.00;;;30.66;46.65
3150;BME280;32503;47.748;8.960;2023-08-12T10:34:20;97208.31;;;30.72;46.30
3150;BME280;32503;47.748;8.960;2023-08-12T10:36:48;97204.44;;;30.84;46.53
3150;BME280;32503;47.748;8.960;2023-08-12T10:39:15;97194.75;;;30.94;45.70
3150;BME280;32503;47.748;8.960;2023-08-12T10:41:51;97188.50;;;30.99;45.71
3150;BME280;32503;47.748;8.960;2023-08-12T10:44:21;97182.31;;;30.95;45.33
3150;BME280;32503;47.748;8.960;2023-08-12T10:46:53;97189.53;;;30.87;45.25
3150;BME280;32503;47.748;8.960;2023-08-12T10:49:22;97184.63;;;30.82;46.16
3150;BME280;32503;47.748;8.960;2023-08-12T10:51:51;97190.88;;;30.77;45.68
3150;BME280;32503;47.748;8.960;2023-08-12T10:54:22;97206.94;;;30.67;46.01
3150;BME280;32503;47.748;8.960;2023-08-12T10:57:11;97211.31;;;30.53;46.30
3150;BME280;32503;47.748;8.960;2023-08-12T10:59:50;97206.47;;;30.39;46.55
3150;BME280;32503;47.748;8.960;2023-08-12T11:02:21;97207.97;;;30.25;46.71
3150;BME280;32503;47.748;8.960;2023-08-12T11:04:52;97208.47;;;30.23;46.65
3150;BME280;32503;47.748;8.960;2023-08-12T11:07:21;97197.88;;;30.13;46.35
3150;BME280;32503;47.748;8.960;2023-08-12T11:09:53;97200.91;;;30.00;46.12
3150;BME280;32503;47.748;8.960;2023-08-12T11:12:29;97207.13;;;29.95;45.94
3150;BME280;32503;47.748;8.960;2023-08-12T11:14:59;97206.19;;;29.98;46.06
3150;BME280;32503;47.748;8.960;2023-08-12T11:17:33;97194.28;;;29.97;45.23
3150;BME280;32503;47.748;8.960;2023-08-12T11:20:05;97210.34;;;30.02;45.32
3150;BME280;32503;47.748;8.960;2023-08-12T11:22:36;97207.72;;;29.99;45.49
3150;BME280;32503;47.748;8.960;2023-08-12T11:25:05;97206.22;;;30.13;45.71
3150;BME280;32503;47.748;8.960;2023-08-12T11:27:39;97199.94;;;30.42;45.10
3150;BME280;32503;47.748;8.960;2023-08-12T11:30:08;97203.41;;;30.67;44.47
3150;BME280;32503;47.748;8.960;2023-08-12T11:32:38;97188.88;;;30.62;43.82
3150;BME280;32503;47.748;8.960;2023-08-12T11:35:08;97194.34;;;30.72;44.04
3150;BME280;32503;47.748;8.960;2023-08-12T11:37:37;97185.81;;;30.60;44.40
3150;BME280;32503;47.748;8.960;2023-08-12T11:40:06;97184.81;;;30.63;44.67
3150;BME280;32503;47.748;8.960;2023-08-12T11:42:35;97178.41;;;30.57;44.98
3150;BME280;32503;47.748;8.960;2023-08-12T11:45:03;97168.66;;;30.53;44.77
3150;BME280;32503;47.748;8.960;2023-08-12T11:47:30;97164.16;;;30.55;45.02
3150;BME280;32503;47.748;8.960;2023-08-12T11:49:57;97170.31;;;30.59;45.08
3150;BME280;32503;47.748;8.960;2023-08-12T11:52:26;97165.28;;;30.63;45.20
3150;BME280;32503;47.748;8.960;2023-08-12T11:54:53;97177.06;;;30.68;45.11
3150;BME280;32503;47.748;8.960;2023-08-12T11:57:22;97183.38;;;30.68;45.47
3150;BME280;32503;47.748;8.960;2023-08-12T11:59:50;97181.06;;;30.67;44.97
3150;BME280;32503;47.748;8.960;2023-08-12T12:02:17;97184.25;;;30.59;45.38
3150;BME280;32503;47.748;8.960;2023-08-12T12:04:45;97189.47;;;30.52;45.30
3150;BME280;32503;47.748;8.960;2023-08-12T12:07:19;97175.72;;;30.48;45.44
3150;BME280;32503;47.748;8.960;2023-08-12T12:09:51;97168.78;;;30.43;44.67
3150;BME280;32503;47.748;8.960;2023-08-12T12:12:22;97180.41;;;30.42;44.40
3150;BME280;32503;47.748;8.960;2023-08-12T12:14:51;97186.19;;;30.38;44.48
3150;BME280;32503;47.748;8.960;2023-08-12T12:17:21;97182.63;;;30.38;44.05
3150;BME280;32503;47.748;8.960;2023-08-12T12:19:53;97177.97;;;30.20;44.46
3150;BME280;32503;47.748;8.960;2023-08-12T12:22:27;97180.44;;;30.03;44.61
3150;BME280;32503;47.748;8.960;2023-08-12T12:24:58;97169.84;;;29.92;45.27
3150;BME280;32503;47.748;8.960;2023-08-12T12:27:26;97161.38;;;29.86;45.41
3150;BME280;32503;47.748;8.960;2023-08-12T12:29:54;97165.78;;;29.78;45.44
3150;BME280;32503;47.748;8.960;2023-08-12T12:32:21;97166.53;;;29.79;45.60
3150;BME280;32503;47.748;8.960;2023-08-12T12:34:48;97152.94;;;29.72;45.47
3150;BME280;32503;47.748;8.960;2023-08-12T12:37:15;97154.63;;;29.78;45.48
3150;BME280;32503;47.748;8.960;2023-08-12T12:39:42;97146.38;;;29.84;45.13
3150;BME280;32503;47.748;8.960;2023-08-12T12:42:12;97142.38;;;30.00;45.49
3150;BME280;32503;47.748;8.960;2023-08-12T12:44:41;97144.81;;;30.22;44.37
3150;BME280;32503;47.748;8.960;2023-08-12T12:47:10;97110.00;;;30.17;43.25
3150;BME280;32503;47.748;8.960;2023-08-12T12:49:38;97134.91;;;30.66;42.61
3150;BME280;32503;47.748;8.960;2023-08-12T12:52:16;97125.13;;;30.55;41.93
3150;BME280;32503;47.748;8.960;2023-08-12T12:54:43;97127.00;;;30.79;42.61
3150;BME280;32503;47.748;8.960;2023-08-12T12:57:11;97124.22;;;30.94;41.83
3150;BME280;32503;47.748;8.960;2023-08-12T12:59:38;97116.63;;;31.15;42.18
3150;BME280;32503;47.748;8.960;2023-08-12T13:02:06;97116.13;;;31.16;40.90
3150;BME280;32503;47.748;8.960;2023-08-12T13:04:34;97119.34;;;31.30;41.57
3150;BME280;32503;47.748;8.960;2023-08-12T13:07:01;97118.78;;;31.46;41.40
3150;BME280;32503;47.748;8.960;2023-08-12T13:09:28;97122.94;;;31.51;40.70
3150;BME280;32503;47.748;8.960;2023-08-12T13:11:56;97123.75;;;31.78;41.29
3150;BME280;32503;47.748;8.960;2023-08-12T13:14:25;97113.97;;;31.88;39.91